createdAt,value
2023-02-05T15:55:26.113Z,68.41
2023-02-05T15:58:01.037Z,68.40
2023-02-05T16:00:32.473Z,68.31
2023-02-05T16:03:02.905Z,68.19
2023-02-05T16:05:32.283Z,68.14
2023-02-05T16:08:03.172Z,68.50
2023-02-05T16:10:35.149Z,68.37
2023-02-05T16:13:05.995Z,68.36
2023-02-05T16:15:48.501Z,68.49
2023-02-05T16:18:35.199Z,68.43
2023-02-05T16:21:24.173Z,68.44
2023-02-05T16:24:00.479Z,68.50
2023-02-05T16:26:49.907Z,68.46
2023-02-05T16:29:39.067Z,68.46
2023-02-05T16:32:44.519Z,68.38
2023-02-05T16:35:26.521Z,68.37
2023-02-05T16:37:55.534Z,68.45
2023-02-05T16:40:39.176Z,68.35
2023-02-05T16:43:26.722Z,68.40
2023-02-05T16:46:25.811Z,68.70
2023-02-05T16:48:58.384Z,68.73
2023-02-05T16:51:37.333Z,68.62
2023-02-05T16:54:13.568Z,68.70
2023-02-05T16:57:04.043Z,68.77
2023-02-05T16:59:54.724Z,68.76
2023-02-05T17:02:36.934Z,68.72
2023-02-05T17:05:24.103Z,68.69
2023-02-05T17:07:57.670Z,68.64
2023-02-05T17:10:29.311Z,68.88
2023-02-05T17:13:02.300Z,68.87
2023-02-05T17:15:37.654Z,68.73
2023-02-05T17:18:25.016Z,68.70
2023-02-05T17:21:28.832Z,68.63
2023-02-05T17:24:00.765Z,68.60
2023-02-05T17:26:33.327Z,68.64
2023-02-05T17:29:06.550Z,68.78
2023-02-05T17:31:38.137Z,68.74
2023-02-05T17:34:07.902Z,68.82
2023-02-05T17:36:36.202Z,68.77
2023-02-05T17:39:04.509Z,68.85
2023-02-05T17:41:56.121Z,68.86
2023-02-05T17:44:24.612Z,68.98
2023-02-05T17:46:54.501Z,68.89
2023-02-05T17:49:23.059Z,68.88
2023-02-05T17:51:51.673Z,68.80
2023-02-05T17:54:23.220Z,68.89
2023-02-05T17:56:55.071Z,68.93
2023-02-05T17:59:26.271Z,69.09
2023-02-05T18:01:55.045Z,69.04
2023-02-05T18:04:23.943Z,69.15
2023-02-05T18:06:52.364Z,69.08
2023-02-05T18:09:20.668Z,69.11
2023-02-05T18:11:48.938Z,69.14
2023-02-05T18:14:17.457Z,69.18
2023-02-05T18:16:46.100Z,69.08
2023-02-05T18:19:14.624Z,69.08
2023-02-05T18:21:42.896Z,69.16
2023-02-05T18:24:10.943Z,69.06
2023-02-05T18:26:39.050Z,68.97
2023-02-05T18:29:07.281Z,69.06
2023-02-05T18:31:36.292Z,69.13
2023-02-05T18:34:04.563Z,69.04
2023-02-05T18:36:32.825Z,69.15
2023-02-05T18:39:01.324Z,69.24
2023-02-05T18:41:29.418Z,69.11
2023-02-05T18:43:58.852Z,69.08
2023-02-05T18:46:27.149Z,69.08
2023-02-05T18:48:55.772Z,68.94
2023-02-05T18:51:24.216Z,68.90
2023-02-05T18:53:52.813Z,68.86
2023-02-05T18:56:24.182Z,68.63
2023-02-05T18:58:56.725Z,68.71
2023-02-05T19:01:26.206Z,68.69
2023-02-05T19:03:55.011Z,68.78
2023-02-05T19:06:23.694Z,69.15
2023-02-05T19:08:52.079Z,69.19
2023-02-05T19:11:24.486Z,69.29
2023-02-05T19:13:58.238Z,69.03
2023-02-05T19:16:28.081Z,69.17
2023-02-05T19:18:56.754Z,69.16
2023-02-05T19:21:30.803Z,69.41
2023-02-05T19:24:05.746Z,69.25
2023-02-05T19:26:37.076Z,69.38
2023-02-05T19:29:13.520Z,69.23
2023-02-05T19:31:42.835Z,69.08
2023-02-05T19:34:12.241Z,69.00
2023-02-05T19:36:40.555Z,69.04
2023-02-05T19:39:11.649Z,69.34
2023-02-05T19:41:40.779Z,69.33
2023-02-05T19:44:09.449Z,69.26
2023-02-05T19:46:44.362Z,69.24
2023-02-05T19:49:18.290Z,69.15
2023-02-05T19:51:48.560Z,69.25
2023-02-05T19:54:20.040Z,69.19
2023-02-05T19:56:49.938Z,69.19
2023-02-05T19:59:19.042Z,69.08
2023-02-05T20:01:47.763Z,69.26
2023-02-05T20:04:24.922Z,69.04
2023-02-05T20:06:59.091Z,69.07
2023-02-05T20:09:28.112Z,69.24
2023-02-05T20:11:56.802Z,69.23
2023-02-05T20:14:25.192Z,69.16
2023-02-05T20:16:53.761Z,69.03
2023-02-05T20:19:22.193Z,69.20
2023-02-05T20:21:50.477Z,68.99
2023-02-05T20:24:18.771Z,69.07
2023-02-05T20:26:50.590Z,69.22
2023-02-05T20:29:37.474Z,69.06
2023-02-05T20:32:06.579Z,69.10
2023-02-05T20:34:36.392Z,69.14
2023-02-05T20:37:07.520Z,69.32
2023-02-05T20:39:39.979Z,69.22
2023-02-05T20:42:10.802Z,69.13
2023-02-05T20:44:39.204Z,69.15
2023-02-05T20:47:10.770Z,69.14
2023-02-05T20:49:41.267Z,68.99
2023-02-05T20:52:10.184Z,69.05
2023-02-05T20:54:38.700Z,68.93
2023-02-05T20:57:08.012Z,69.01
2023-02-05T20:59:37.451Z,69.15
2023-02-05T21:02:06.055Z,69.31
2023-02-05T21:04:35.977Z,69.25
2023-02-05T21:07:04.169Z,69.40
2023-02-05T21:09:32.422Z,69.46
2023-02-05T21:12:00.584Z,69.18
2023-02-05T21:14:28.799Z,69.30
2023-02-05T21:16:57.484Z,69.25
2023-02-05T21:19:26.595Z,69.27
2023-02-05T21:21:54.862Z,69.34
2023-02-05T21:24:23.150Z,69.62
2023-02-05T21:26:51.417Z,69.51
2023-02-05T21:29:21.021Z,69.29
2023-02-05T21:31:53.402Z,69.23
2023-02-05T21:34:25.136Z,69.31
2023-02-05T21:36:55.174Z,69.34
2023-02-05T21:39:23.841Z,69.52
2023-02-05T21:41:53.613Z,69.62
2023-02-05T21:44:22.596Z,69.65
2023-02-05T21:46:52.723Z,69.52
2023-02-05T21:49:20.955Z,69.43
2023-02-05T21:51:50.701Z,69.43
2023-02-05T21:54:25.319Z,69.43
2023-02-05T21:56:56.018Z,69.34
2023-02-05T21:59:26.060Z,69.55
2023-02-05T22:01:54.622Z,69.38
2023-02-05T22:04:24.450Z,69.40
2023-02-05T22:06:53.547Z,69.40
2023-02-05T22:09:23.409Z,69.36
2023-02-05T22:11:53.253Z,69.37
2023-02-05T22:14:21.651Z,69.31
2023-02-05T22:16:50.502Z,69.33
2023-02-05T22:19:19.144Z,69.54
2023-02-05T22:21:47.893Z,69.58
2023-02-05T22:24:19.372Z,69.37
2023-02-05T22:26:47.950Z,69.33
2023-02-05T22:29:19.571Z,69.37
2023-02-05T22:31:53.169Z,69.60
2023-02-05T22:34:21.839Z,69.71
2023-02-05T22:36:50.510Z,69.52
2023-02-05T22:39:19.022Z,69.51
2023-02-05T22:41:47.163Z,69.55
2023-02-05T22:44:18.532Z,69.53
2023-02-05T22:46:47.097Z,69.57
2023-02-05T22:49:15.661Z,69.63
2023-02-05T22:51:45.531Z,69.64
2023-02-05T22:54:14.966Z,69.53
2023-02-05T22:56:44.008Z,69.69
2023-02-05T22:59:13.033Z,69.63
2023-02-05T23:01:41.290Z,69.76
2023-02-05T23:04:10.164Z,69.92
2023-02-05T23:06:41.546Z,69.82
2023-02-05T23:09:13.446Z,69.89
2023-02-05T23:11:42.180Z,69.75
2023-02-05T23:14:12.246Z,69.32
2023-02-05T23:16:43.433Z,69.52
2023-02-05T23:19:16.452Z,69.43
2023-02-05T23:21:45.602Z,69.56
2023-02-05T23:24:14.717Z,69.67
2023-02-05T23:26:46.974Z,69.95
2023-02-05T23:29:17.297Z,70.15
2023-02-05T23:31:46.789Z,70.12
2023-02-05T23:34:15.871Z,70.23
2023-02-05T23:36:44.930Z,70.11
2023-02-05T23:39:13.471Z,69.97
2023-02-05T23:41:41.945Z,70.11
2023-02-05T23:44:11.847Z,70.20
2023-02-05T23:46:42.125Z,69.92
2023-02-05T23:49:12.573Z,70.08
2023-02-05T23:51:40.777Z,69.80
2023-02-05T23:54:11.573Z,70.03
2023-02-05T23:56:40.741Z,70.08
2023-02-05T23:59:11.328Z,70.00
